Hilltop Lakes, Texas
Current Conditions -  °F | °C
As of 9:35 PM on Sunday 21 Dec 2014 (Local Time) from KCFD Reporting Station
Overcast Overcast  
Wind Chill: 55°   Ceiling: 2800
Heat Index: 55°   Visibility: 10mi
Dew Point: 51°   Wind: 9mph
Humidity: 85%   Direction: 160°SSE
Pressure: 29.87"   Gusts: NA
Location:  31.1118°N, 96.1332°W
Report Text: KCFD 220335Z AUTO 16008KT 10SM SCT021 OVC028 13/11 A2987 RMK AO2 T01300106
Loading
Personal Weather Stations






























Interactive Weather Map New forecast layout! Learn more

10-Day Weather Forecast

Advertisements
Track Severe Weather on mobile